Time;durP1;ratioP1;P1;durP2;ratioP2;P2;SDS_P1;SDS_P2;PMS_P1;PMS_P2;Temp;Humidity;BMP_temperature;BMP_pressure;BME280_temperature;BME280_humidity;BME280_pressure;Samples;Min_cycle;Max_cycle;Signal;HPM_P1;HPM_P2
2023/05/14 00:01:03;;;;;;;;;5.00;4.00;;;;;22.37;37.71;101547.46;110261;1250;19629;-41
2023/05/14 00:03:30;;;;;;;;;5.00;5.00;;;;;22.38;37.70;101550.50;110252;1265;18864;-41
2023/05/14 00:05:57;;;;;;;;;2.00;2.00;;;;;22.38;37.83;101550.29;110237;1265;19437;-41
2023/05/14 00:08:25;;;;;;;;;4.00;4.00;;;;;22.38;37.80;101550.52;110225;1251;18260;-43
2023/05/14 00:10:52;;;;;;;;;7.00;4.00;;;;;22.38;37.74;101547.69;110239;1265;19845;-41
2023/05/14 00:13:19;;;;;;;;;2.00;2.00;;;;;22.37;37.72;101539.85;110271;1265;20771;-40
2023/05/14 00:15:47;;;;;;;;;7.00;5.00;;;;;22.36;37.70;101542.30;110228;1265;18490;-41
2023/05/14 00:18:14;;;;;;;;;2.00;2.00;;;;;22.37;37.78;101538.99;110266;1251;21389;-41
2023/05/14 00:20:41;;;;;;;;;4.00;4.00;;;;;22.37;37.73;101537.86;110227;1259;20853;-42
2023/05/14 00:23:09;;;;;;;;;5.00;4.00;;;;;22.37;37.77;101535.06;110267;1265;19561;-40
2023/05/14 00:25:36;;;;;;;;;4.00;4.00;;;;;22.38;37.82;101538.68;110253;1251;20183;-41
2023/05/14 00:28:04;;;;;;;;;4.50;4.00;;;;;22.37;37.74;101533.84;110209;1251;20811;-40
2023/05/14 00:30:31;;;;;;;;;2.00;2.00;;;;;22.38;37.81;101532.30;110205;1251;19700;-39
2023/05/14 00:32:59;;;;;;;;;4.00;4.00;;;;;22.37;37.83;101529.43;110215;1251;22888;-41
2023/05/14 00:35:26;;;;;;;;;4.00;4.00;;;;;22.37;37.94;101528.88;110223;1265;19350;-41
2023/05/14 00:37:53;;;;;;;;;2.00;2.00;;;;;22.38;37.81;101528.13;110257;1265;18262;-41
2023/05/14 00:40:21;;;;;;;;;2.00;2.00;;;;;22.38;38.01;101531.95;110259;1265;19010;-41
2023/05/14 00:42:48;;;;;;;;;5.00;5.00;;;;;22.37;37.75;101533.63;110262;1251;20899;-41
2023/05/14 00:45:15;;;;;;;;;5.00;5.00;;;;;22.37;38.00;101534.34;110099;1265;188531;-41
2023/05/14 00:47:43;;;;;;;;;4.00;3.00;;;;;22.37;38.03;101532.92;110250;1260;20119;-40
2023/05/14 00:50:10;;;;;;;;;2.00;2.00;;;;;22.38;37.90;101530.29;110193;1251;20791;-41
2023/05/14 00:52:38;;;;;;;;;3.00;3.00;;;;;22.38;37.85;101533.21;110133;1260;19643;-41
2023/05/14 00:55:05;;;;;;;;;7.00;5.00;;;;;22.37;37.89;101534.77;110197;1265;18971;-44
2023/05/14 00:57:32;;;;;;;;;5.00;5.00;;;;;22.37;37.97;101530.73;110272;1251;20696;-40
2023/05/14 01:00:00;;;;;;;;;7.00;4.67;;;;;22.37;38.04;101531.30;110180;1257;22744;-44
2023/05/14 01:02:27;;;;;;;;;4.00;4.00;;;;;22.36;37.75;101530.45;110193;1251;20107;-41
2023/05/14 01:04:54;;;;;;;;;4.50;4.50;;;;;22.36;37.99;101524.83;110212;1265;19502;-41
2023/05/14 01:07:22;;;;;;;;;2.00;2.00;;;;;22.36;38.10;101529.19;110254;1251;20941;-41
2023/05/14 01:09:49;;;;;;;;;5.00;4.00;;;;;22.36;38.03;101529.02;110249;1265;22190;-41
2023/05/14 01:12:17;;;;;;;;;5.00;5.00;;;;;22.36;37.99;101526.29;110257;1251;21414;-41
2023/05/14 01:14:44;;;;;;;;;5.00;5.00;;;;;22.37;38.05;101527.32;110244;1249;19702;-41
2023/05/14 01:17:12;;;;;;;;;7.00;5.67;;;;;22.36;38.01;101523.19;110254;1251;20110;-41
2023/05/14 01:19:39;;;;;;;;;6.33;5.00;;;;;22.36;37.89;101523.80;110167;1251;20836;-41
2023/05/14 01:22:06;;;;;;;;;4.00;4.00;;;;;22.37;37.97;101527.31;110243;1265;22095;-41
2023/05/14 01:24:34;;;;;;;;;4.00;4.00;;;;;22.37;37.96;101528.56;110243;1259;22457;-41
2023/05/14 01:27:01;;;;;;;;;5.00;5.00;;;;;22.37;38.00;101530.80;110254;1260;20711;-41
2023/05/14 01:29:28;;;;;;;;;7.00;5.00;;;;;22.36;37.99;101525.00;110272;1265;18501;-41
2023/05/14 01:31:56;;;;;;;;;5.00;5.00;;;;;22.36;37.85;101523.08;110231;1251;21282;-41
2023/05/14 01:34:23;;;;;;;;;5.00;5.00;;;;;22.36;38.02;101525.91;110226;1258;20679;-41
2023/05/14 01:36:50;;;;;;;;;4.00;4.00;;;;;22.36;37.92;101520.52;110184;1251;19684;-42
2023/05/14 01:39:18;;;;;;;;;4.50;4.00;;;;;22.36;38.09;101520.72;110219;1251;22435;-41
2023/05/14 01:41:45;;;;;;;;;5.00;5.00;;;;;22.35;37.94;101519.46;110227;1251;20850;-41
2023/05/14 01:44:12;;;;;;;;;4.00;4.00;;;;;22.36;37.98;101514.54;110243;1251;19705;-41
2023/05/14 01:46:40;;;;;;;;;3.33;3.33;;;;;22.35;38.07;101519.31;110257;1257;22729;-40
2023/05/14 01:49:07;;;;;;;;;4.00;4.00;;;;;22.35;38.10;101516.40;110251;1265;19506;-39
2023/05/14 01:51:34;;;;;;;;;4.00;4.00;;;;;22.35;37.97;101513.16;110244;1251;19624;-40
2023/05/14 01:54:02;;;;;;;;;4.00;4.00;;;;;22.35;38.20;101512.41;110273;1250;18685;-40
2023/05/14 01:56:29;;;;;;;;;4.00;4.00;;;;;22.35;38.25;101510.92;110247;1251;20901;-43
2023/05/14 01:58:56;;;;;;;;;4.00;4.00;;;;;22.35;38.11;101510.16;110261;1265;18749;-41
2023/05/14 02:01:24;;;;;;;;;4.00;4.00;;;;;22.35;38.08;101506.06;110180;1257;18629;-40
2023/05/14 02:03:52;;;;;;;;;4.67;4.00;;;;;22.34;38.20;101507.02;110229;1265;20705;-40
2023/05/14 02:06:19;;;;;;;;;2.00;2.00;;;;;22.35;38.15;101506.40;110279;1265;18391;-40
2023/05/14 02:08:46;;;;;;;;;4.00;4.00;;;;;22.34;38.25;101501.95;110264;1251;20082;-40
2023/05/14 02:11:14;;;;;;;;;4.00;4.00;;;;;22.33;38.14;101502.71;110254;1265;19210;-40
2023/05/14 02:13:41;;;;;;;;;4.00;4.00;;;;;22.35;38.36;101501.14;110264;1251;22184;-40
2023/05/14 02:16:08;;;;;;;;;2.00;2.00;;;;;22.35;38.40;101499.68;110292;1251;20048;-40
2023/05/14 02:18:36;;;;;;;;;2.00;2.00;;;;;22.35;38.24;101497.45;110267;1260;22924;-40
2023/05/14 02:21:03;;;;;;;;;4.00;4.00;;;;;22.35;38.17;101497.33;110041;1251;19665;-40
2023/05/14 02:23:30;;;;;;;;;4.00;4.00;;;;;22.35;38.27;101495.31;110040;1266;18911;-40
2023/05/14 02:25:58;;;;;;;;;4.00;2.00;;;;;22.35;38.09;101499.52;110065;1266;21684;-40
2023/05/14 02:28:25;;;;;;;;;2.00;2.00;;;;;22.35;38.34;101499.49;110039;1260;19562;-40
2023/05/14 02:30:52;;;;;;;;;2.00;2.00;;;;;22.35;38.18;101501.66;110078;1266;18650;-40
2023/05/14 02:33:20;;;;;;;;;4.00;4.00;;;;;22.35;38.30;101501.63;110049;1250;20779;-39
2023/05/14 02:35:47;;;;;;;;;4.00;4.00;;;;;22.35;38.09;101502.38;110068;1253;19615;-41
2023/05/14 02:38:14;;;;;;;;;2.00;2.00;;;;;22.35;38.20;101500.98;110041;1253;21105;-41
2023/05/14 02:40:42;;;;;;;;;2.00;2.00;;;;;22.35;38.11;101498.78;110046;1266;20728;-39
2023/05/14 02:43:09;;;;;;;;;3.00;3.00;;;;;22.35;38.20;101497.31;110046;1253;19640;-41
2023/05/14 02:45:36;;;;;;;;;2.00;2.00;;;;;22.35;38.22;101499.08;109956;1254;20203;-41
2023/05/14 02:48:04;;;;;;;;;2.00;2.00;;;;;22.35;38.18;101496.91;109904;1260;20722;-42
2023/05/14 02:50:31;;;;;;;;;6.00;4.50;;;;;22.34;38.24;101493.49;109938;1254;20911;-42
2023/05/14 02:52:58;;;;;;;;;2.00;2.00;;;;;22.35;38.17;101493.13;110034;1250;20072;-41
2023/05/14 02:55:26;;;;;;;;;2.00;2.00;;;;;22.35;38.31;101494.73;110013;1266;19339;-41
2023/05/14 02:57:53;;;;;;;;;4.00;2.00;;;;;22.35;38.26;101494.73;110058;1266;18549;-42
2023/05/14 03:00:20;;;;;;;;;2.00;2.00;;;;;22.36;38.37;101492.85;110034;1266;20218;-42
2023/05/14 03:02:48;;;;;;;;;2.00;2.00;;;;;22.35;38.37;101492.36;109904;1251;20825;-42
2023/05/14 03:05:15;;;;;;;;;2.00;2.00;;;;;22.35;38.19;101490.52;110039;1266;18585;-44
2023/05/14 03:07:42;;;;;;;;;4.00;2.00;;;;;22.35;38.12;101489.44;110052;1266;20104;-41
2023/05/14 03:10:10;;;;;;;;;2.00;2.00;;;;;22.35;38.25;101488.00;110049;1260;20803;-40
2023/05/14 03:12:37;;;;;;;;;2.00;2.00;;;;;22.35;38.27;101485.52;110062;1266;18523;-40
2023/05/14 03:15:04;;;;;;;;;2.00;2.00;;;;;22.35;38.41;101483.79;110087;1251;20688;-40
2023/05/14 03:17:32;;;;;;;;;1.33;1.33;;;;;22.35;38.31;101483.84;110074;1266;19351;-40
2023/05/14 03:19:59;;;;;;;;;2.00;2.00;;;;;22.35;38.32;101483.10;110105;1266;20679;-40
2023/05/14 03:22:27;;;;;;;;;2.00;2.00;;;;;22.33;38.23;101479.23;110304;1250;18688;-40
2023/05/14 03:24:54;;;;;;;;;2.00;2.00;;;;;22.35;38.26;101480.77;110308;1265;20611;-40
2023/05/14 03:27:21;;;;;;;;;1.00;1.00;;;;;22.35;38.43;101480.23;110260;1266;18352;-40
2023/05/14 03:29:49;;;;;;;;;4.00;2.00;;;;;22.35;38.38;101478.94;110283;1251;20010;-42
2023/05/14 03:32:16;;;;;;;;;2.00;2.00;;;;;22.34;38.36;101475.67;110283;1265;20917;-40
2023/05/14 03:34:43;;;;;;;;;2.00;2.00;;;;;22.35;38.28;101478.02;110278;1265;18600;-39
2023/05/14 03:37:11;;;;;;;;;2.00;2.00;;;;;22.35;38.13;101482.71;110303;1251;20020;-40
2023/05/14 03:39:38;;;;;;;;;3.00;2.00;;;;;22.34;38.36;101479.50;110323;1251;20806;-42
2023/05/14 03:42:05;;;;;;;;;1.00;1.00;;;;;22.35;38.23;101473.45;110285;1250;19683;-40
2023/05/14 03:44:33;;;;;;;;;2.00;2.00;;;;;22.36;38.24;101476.27;110272;1250;20111;-40
2023/05/14 03:47:00;;;;;;;;;1.00;1.00;;;;;22.35;38.44;101470.17;110279;1266;19384;-40
2023/05/14 03:49:27;;;;;;;;;2.00;2.00;;;;;22.35;38.15;101468.33;110304;1260;19666;-40
2023/05/14 03:51:56;;;;;;;;;2.00;2.00;;;;;22.35;38.40;101468.87;110281;1251;21602;-39
2023/05/14 03:54:23;;;;;;;;;4.00;2.00;;;;;22.36;38.33;101466.98;110259;1251;20831;-40
2023/05/14 03:56:50;;;;;;;;;2.00;2.00;;;;;22.36;38.43;101464.77;110276;1265;18658;-40
2023/05/14 03:59:18;;;;;;;;;2.00;2.00;;;;;22.36;38.19;101467.64;110293;1260;20183;-40
2023/05/14 04:01:45;;;;;;;;;2.00;2.00;;;;;22.36;38.28;101469.61;110284;1265;21728;-40
2023/05/14 04:04:12;;;;;;;;;2.67;2.67;;;;;22.36;38.49;101463.48;110276;1260;19895;-40
2023/05/14 04:06:40;;;;;;;;;2.00;2.00;;;;;22.36;38.45;101464.39;110306;1265;18796;-44
2023/05/14 04:09:07;;;;;;;;;2.00;2.00;;;;;22.36;38.53;101463.14;110271;1265;19308;-40
2023/05/14 04:11:36;;;;;;;;;2.00;2.00;;;;;22.37;38.37;101467.90;110272;1251;18236;-40
2023/05/14 04:14:04;;;;;;;;;2.00;2.00;;;;;22.37;38.27;101469.38;110261;1249;18618;-40
2023/05/14 04:16:31;;;;;;;;;1.00;1.00;;;;;22.37;38.49;101466.81;110253;1265;21124;-41
2023/05/14 04:18:59;;;;;;;;;2.00;2.00;;;;;22.36;38.37;101463.10;110263;1265;18377;-41
2023/05/14 04:21:26;;;;;;;;;2.00;2.00;;;;;22.36;38.39;101462.17;110038;1266;20101;-41
2023/05/14 04:23:53;;;;;;;;;3.00;2.00;;;;;22.38;38.29;101464.39;110039;1254;22783;-40
2023/05/14 04:26:21;;;;;;;;;2.00;2.00;;;;;22.38;38.46;101466.73;110050;1266;18273;-40
2023/05/14 04:28:49;;;;;;;;;2.00;2.00;;;;;22.37;38.33;101465.52;110031;1266;20047;-40
2023/05/14 04:31:16;;;;;;;;;2.00;2.00;;;;;22.38;38.39;101464.73;110045;1253;20733;-40
2023/05/14 04:33:43;;;;;;;;;2.00;2.00;;;;;22.38;38.33;101461.80;110060;1266;19868;-40
2023/05/14 04:36:11;;;;;;;;;1.00;1.00;;;;;22.37;38.49;101459.91;110060;1251;22164;-40
2023/05/14 04:38:38;;;;;;;;;2.00;2.00;;;;;22.37;38.48;101461.77;110059;1260;22632;-40
2023/05/14 04:41:06;;;;;;;;;2.00;2.00;;;;;22.37;38.63;101463.16;110058;1266;20996;-40
2023/05/14 04:43:33;;;;;;;;;2.00;2.00;;;;;22.37;38.25;101457.73;110070;1254;20060;-40
2023/05/14 04:46:00;;;;;;;;;4.00;2.00;;;;;22.37;38.45;101455.38;110046;1250;20953;-41
2023/05/14 04:48:28;;;;;;;;;2.00;2.00;;;;;22.37;38.42;101455.51;110068;1251;19728;-40
2023/05/14 04:50:55;;;;;;;;;2.00;2.00;;;;;22.38;38.31;101454.92;110052;1251;19980;-42
2023/05/14 04:53:23;;;;;;;;;4.00;4.00;;;;;22.36;38.40;101450.02;110045;1266;22206;-40
2023/05/14 04:55:50;;;;;;;;;2.00;2.00;;;;;22.37;38.42;101447.90;110054;1266;18455;-40
2023/05/14 04:58:18;;;;;;;;;2.00;2.00;;;;;22.39;38.81;101448.15;110036;1266;18985;-40
2023/05/14 05:00:45;;;;;;;;;2.00;2.00;;;;;22.42;38.78;101448.07;110007;1254;20961;-42
2023/05/14 05:03:12;;;;;;;;;1.50;1.50;;;;;22.42;38.92;101445.95;110035;1250;18532;-42
2023/05/14 05:05:40;;;;;;;;;2.00;2.00;;;;;22.42;38.95;101445.13;109995;1266;18732;-41
2023/05/14 05:08:07;;;;;;;;;2.00;2.00;;;;;22.43;38.87;101443.22;110020;1266;21935;-41
2023/05/14 05:10:34;;;;;;;;;2.00;2.00;;;;;22.42;38.92;101439.89;109994;1266;18564;-41
2023/05/14 05:13:02;;;;;;;;;4.00;2.00;;;;;22.43;38.93;101440.31;109933;1266;18911;-41
2023/05/14 05:15:29;;;;;;;;;2.00;2.00;;;;;22.43;38.95;101434.14;110046;1266;19376;-42
2023/05/14 05:17:56;;;;;;;;;2.00;2.00;;;;;22.43;39.08;101434.85;110041;1260;22047;-41
2023/05/14 05:20:24;;;;;;;;;2.00;2.00;;;;;22.43;39.04;101429.39;110129;1265;18639;-41
2023/05/14 05:22:51;;;;;;;;;1.50;1.50;;;;;22.45;39.07;101430.41;110255;1251;20787;-42
2023/05/14 05:25:19;;;;;;;;;2.00;2.00;;;;;22.46;39.15;101425.45;110219;1251;19693;-41
2023/05/14 05:27:46;;;;;;;;;2.00;2.00;;;;;22.46;39.03;101424.19;110214;1265;18621;-39
2023/05/14 05:30:13;;;;;;;;;2.00;2.00;;;;;22.47;39.05;101426.00;110239;1251;20779;-40
2023/05/14 05:32:41;;;;;;;;;1.00;1.00;;;;;22.48;38.95;101424.88;110263;1265;22714;-40
2023/05/14 05:35:08;;;;;;;;;2.00;2.00;;;;;22.48;38.87;101424.65;110273;1265;18680;-40
2023/05/14 05:37:35;;;;;;;;;5.00;4.00;;;;;22.49;38.93;101423.48;110268;1250;19855;-40
2023/05/14 05:40:04;;;;;;;;;4.00;4.00;;;;;22.49;38.98;101421.23;110281;1251;19676;-40
2023/05/14 05:42:32;;;;;;;;;4.00;4.00;;;;;22.52;38.82;101422.55;110324;1249;21761;-40
2023/05/14 05:44:59;;;;;;;;;3.33;3.33;;;;;22.56;39.10;101421.72;110276;1251;20768;-44
2023/05/14 05:47:26;;;;;;;;;2.00;2.00;;;;;22.60;39.29;101418.38;110262;1251;22165;-39
2023/05/14 05:49:54;;;;;;;;;4.00;4.00;;;;;22.63;39.63;101417.64;110271;1251;20055;-40
2023/05/14 05:52:21;;;;;;;;;3.00;3.00;;;;;22.67;40.12;101415.26;110297;1251;20682;-40
2023/05/14 05:54:49;;;;;;;;;2.00;2.00;;;;;22.66;40.65;101417.83;110286;1250;22956;-41
2023/05/14 05:57:16;;;;;;;;;2.00;2.00;;;;;22.68;40.85;101419.91;110282;1251;20004;-40
2023/05/14 05:59:44;;;;;;;;;2.00;2.00;;;;;22.69;40.78;101418.09;110285;1250;20879;-39
2023/05/14 06:02:11;;;;;;;;;4.00;4.00;;;;;22.73;40.98;101422.02;110283;1251;19673;-40
2023/05/14 06:04:38;;;;;;;;;5.00;4.00;;;;;22.77;41.17;101420.06;110296;1265;18974;-40
2023/05/14 06:07:06;;;;;;;;;5.00;5.00;;;;;22.80;41.33;101420.88;110255;1257;19368;-39
2023/05/14 06:09:33;;;;;;;;;4.00;4.00;;;;;22.82;41.47;101415.30;110265;1259;19498;-40
2023/05/14 06:12:00;;;;;;;;;4.00;4.00;;;;;22.83;41.49;101413.60;110259;1265;18629;-39
2023/05/14 06:14:27;;;;;;;;;5.00;4.50;;;;;22.84;41.51;101413.05;110254;1260;20627;-39
2023/05/14 06:16:55;;;;;;;;;4.00;4.00;;;;;22.86;41.64;101416.17;110248;1266;22683;-40
2023/05/14 06:19:22;;;;;;;;;8.00;6.50;;;;;22.86;41.65;101411.23;110268;1250;19961;-40
2023/05/14 06:21:49;;;;;;;;;10.00;10.00;;;;;22.84;41.14;101418.01;110277;1251;20759;-41
2023/05/14 06:24:18;;;;;;;;;11.00;11.00;;;;;22.64;40.36;101421.79;110279;1251;22331;-41
2023/05/14 06:26:47;;;;;;;;;18.00;16.00;;;;;22.47;39.84;101428.02;110238;1265;18821;-41
2023/05/14 06:29:14;;;;;;;;;16.00;15.00;;;;;22.35;39.55;101431.33;110296;1266;19367;-40
2023/05/14 06:31:42;;;;;;;;;18.00;14.00;;;;;22.30;39.34;101428.44;110271;1251;20077;-42
2023/05/14 06:34:09;;;;;;;;;18.50;15.00;;;;;22.26;39.03;101417.45;110257;1251;22203;-41
2023/05/14 06:36:36;;;;;;;;;18.00;18.00;;;;;22.37;39.13;101416.95;110258;1265;19320;-41
2023/05/14 06:39:04;;;;;;;;;15.00;15.00;;;;;22.40;38.93;101418.66;110229;1265;18582;-41
2023/05/14 06:41:31;;;;;;;;;13.00;13.00;;;;;22.44;38.86;101420.61;110236;1265;19051;-41
2023/05/14 06:43:58;;;;;;;;;19.00;18.00;;;;;22.53;39.38;101418.77;110180;1265;22918;-41
2023/05/14 06:46:26;;;;;;;;;16.00;15.00;;;;;22.58;39.38;101416.39;110186;1251;20190;-43
2023/05/14 06:48:53;;;;;;;;;15.50;14.00;;;;;22.61;39.15;101414.63;110230;1261;22796;-44
2023/05/14 06:51:20;;;;;;;;;19.67;16.00;;;;;22.63;39.18;101413.86;110222;1265;19375;-40
2023/05/14 06:53:48;;;;;;;;;14.50;14.00;;;;;22.63;38.92;101414.75;110244;1250;21154;-41
2023/05/14 06:56:15;;;;;;;;;14.00;14.00;;;;;22.62;39.08;101414.14;110268;1265;20073;-43
2023/05/14 06:58:43;;;;;;;;;17.00;17.00;;;;;22.51;38.74;101412.23;110269;1251;21943;-41
2023/05/14 07:01:10;;;;;;;;;18.00;16.00;;;;;22.47;38.73;101413.30;110135;1265;19779;-41
2023/05/14 07:03:37;;;;;;;;;15.50;15.50;;;;;22.61;38.85;101400.89;110158;1251;22488;-39
2023/05/14 07:06:05;;;;;;;;;15.00;15.00;;;;;22.74;38.80;101400.29;110225;1265;19286;-41
2023/05/14 07:08:33;;;;;;;;;16.00;16.00;;;;;22.81;38.72;101397.80;110228;1265;22671;-39
2023/05/14 07:11:00;;;;;;;;;15.00;14.00;;;;;22.82;38.51;101397.12;110250;1265;22072;-41
2023/05/14 07:13:27;;;;;;;;;16.00;14.00;;;;;22.81;38.60;101394.73;110249;1250;20927;-40
2023/05/14 07:15:55;;;;;;;;;15.00;14.50;;;;;22.89;38.36;101390.67;110242;1251;20041;-42
2023/05/14 07:18:22;;;;;;;;;16.00;15.00;;;;;22.81;38.10;101385.23;110183;1251;20150;-39
2023/05/14 07:20:50;;;;;;;;;18.00;15.00;;;;;22.76;37.86;101389.04;110174;1251;20764;-38
2023/05/14 07:23:17;;;;;;;;;15.00;14.50;;;;;22.74;37.62;101385.59;110180;1265;19929;-40
2023/05/14 07:25:45;;;;;;;;;22.00;18.00;;;;;22.68;37.14;101382.13;110126;1251;20219;-39
2023/05/14 07:28:12;;;;;;;;;14.50;14.50;;;;;22.71;37.20;101380.52;110103;1251;20827;-40
2023/05/14 07:30:39;;;;;;;;;16.00;15.00;;;;;22.79;37.43;101378.50;110081;1266;20027;-41
2023/05/14 07:33:06;;;;;;;;;16.00;15.00;;;;;22.80;36.93;101373.52;110159;1266;21919;-40
2023/05/14 07:35:34;;;;;;;;;15.00;15.00;;;;;22.80;37.02;101368.70;110156;1265;19352;-40
2023/05/14 07:38:01;;;;;;;;;15.00;14.00;;;;;22.82;37.16;101362.52;110170;1251;22760;-39
2023/05/14 07:40:29;;;;;;;;;12.00;12.00;;;;;22.86;37.09;101357.67;110201;1251;20329;-42
2023/05/14 07:42:56;;;;;;;;;13.33;12.00;;;;;22.92;36.90;101358.02;110211;1265;19364;-40
2023/05/14 07:45:23;;;;;;;;;13.00;12.00;;;;;22.88;36.29;101354.20;110208;1265;19797;-39
2023/05/14 07:47:51;;;;;;;;;12.00;11.50;;;;;22.85;36.48;101355.54;110224;1265;20119;-40
2023/05/14 07:50:18;;;;;;;;;15.00;14.00;;;;;22.81;36.33;101359.13;110215;1251;20828;-42
2023/05/14 07:52:45;;;;;;;;;14.00;14.00;;;;;22.76;36.05;101355.66;110200;1265;18584;-40
2023/05/14 07:55:13;;;;;;;;;14.00;12.00;;;;;22.78;35.87;101350.02;110282;1260;20086;-39
2023/05/14 07:57:40;;;;;;;;;12.00;12.00;;;;;22.71;35.43;101349.02;110278;1251;20737;-43
2023/05/14 08:00:07;;;;;;;;;14.00;12.00;;;;;22.69;35.25;101344.64;110243;1265;19938;-39
2023/05/14 08:02:35;;;;;;;;;13.00;13.00;;;;;22.77;35.10;101346.13;110197;1251;20281;-41
2023/05/14 08:05:02;;;;;;;;;12.00;12.00;;;;;22.77;34.87;101344.15;110213;1265;19333;-40
2023/05/14 08:07:30;;;;;;;;;14.00;12.00;;;;;22.68;34.56;101342.05;110201;1265;18620;-42
2023/05/14 08:09:57;;;;;;;;;;;;;;;22.73;34.55;101341.66;110233;1251;21963;-40
2023/05/14 08:12:25;;;;;;;;;12.00;11.00;;;;;22.71;34.20;101337.75;110191;1251;20751;-40
2023/05/14 08:14:52;;;;;;;;;11.50;11.00;;;;;22.74;34.09;101337.94;110249;1251;19293;-40
2023/05/14 08:17:20;;;;;;;;;13.00;13.00;;;;;22.77;34.31;101329.02;110144;1260;19944;-41
2023/05/14 08:19:48;;;;;;;;;14.00;12.00;;;;;22.76;34.15;101323.13;110218;1251;22555;-40
2023/05/14 08:22:15;;;;;;;;;12.00;12.00;;;;;22.77;33.97;101320.64;110192;1265;18589;-41
2023/05/14 08:24:43;;;;;;;;;14.00;12.00;;;;;22.80;34.08;101319.67;110130;1266;18826;-40
2023/05/14 08:27:10;;;;;;;;;11.00;11.00;;;;;22.86;33.83;101319.59;110210;1260;21149;-42
2023/05/14 08:29:37;;;;;;;;;14.00;12.00;;;;;22.88;34.01;101316.83;110234;1251;19957;-40
2023/05/14 08:32:05;;;;;;;;;14.00;12.00;;;;;22.88;33.87;101316.12;110263;1250;20056;-41
2023/05/14 08:34:32;;;;;;;;;11.67;11.00;;;;;22.90;34.11;101314.03;110285;1265;19378;-40
2023/05/14 08:36:59;;;;;;;;;13.00;11.50;;;;;22.88;33.81;101314.47;110208;1251;20063;-40
2023/05/14 08:39:27;;;;;;;;;14.00;12.00;;;;;22.84;33.67;101304.73;110216;1265;18864;-40
2023/05/14 08:41:54;;;;;;;;;13.00;13.00;;;;;22.86;33.49;101308.63;110218;1251;21093;-40
2023/05/14 08:44:22;;;;;;;;;12.00;12.00;;;;;22.91;33.32;101303.73;110251;1265;22130;-40
2023/05/14 08:46:49;;;;;;;;;12.00;11.00;;;;;22.93;33.20;101305.09;110214;1250;22190;-41
2023/05/14 08:49:16;;;;;;;;;14.00;12.00;;;;;22.88;33.05;101310.19;110212;1250;21202;-40
2023/05/14 08:51:45;;;;;;;;;12.00;11.00;;;;;22.84;32.82;101305.38;110206;1265;19898;-47
2023/05/14 08:54:15;;;;;;;;;13.00;13.00;;;;;22.80;32.51;101299.66;110253;1265;19458;-40
2023/05/14 08:56:43;;;;;;;;;11.00;11.00;;;;;22.83;32.46;101299.30;110244;1251;20833;-40
2023/05/14 08:59:10;;;;;;;;;12.00;12.00;;;;;22.81;32.32;101297.70;110211;1265;20865;-43
2023/05/14 09:01:38;;;;;;;;;12.00;12.00;;;;;22.78;32.49;101295.34;110230;1251;22916;-42
2023/05/14 09:04:07;;;;;;;;;14.00;12.00;;;;;22.80;32.32;101294.91;110144;1265;19344;-41
2023/05/14 09:06:34;;;;;;;;;14.00;14.00;;;;;22.77;31.69;101288.40;110025;1267;19883;-41
2023/05/14 09:09:01;;;;;;;;;12.00;12.00;;;;;22.81;31.43;101292.09;110226;1265;20102;-41
2023/05/14 09:11:29;;;;;;;;;;;;;;;22.77;31.09;101291.70;109988;1266;20671;-40
2023/05/14 09:13:56;;;;;;;;;12.00;12.00;;;;;22.76;31.08;101288.27;110238;1265;18627;-41
2023/05/14 09:16:23;;;;;;;;;11.50;11.00;;;;;22.77;31.06;101287.12;110237;1265;20090;-40
2023/05/14 09:18:51;;;;;;;;;14.00;12.00;;;;;22.72;31.06;101290.57;110289;1259;20682;-41
2023/05/14 09:21:18;;;;;;;;;18.00;15.00;;;;;22.70;31.10;101287.25;110216;1251;20017;-41
2023/05/14 09:23:48;;;;;;;;;12.00;12.00;;;;;22.72;31.20;101275.50;110224;1265;22106;-42
2023/05/14 09:26:15;;;;;;;;;12.00;12.00;;;;;22.73;31.34;101270.85;110157;1251;22335;-42
2023/05/14 09:28:42;;;;;;;;;12.00;12.00;;;;;22.81;31.24;101271.88;110199;1251;19996;-41
2023/05/14 09:31:10;;;;;;;;;14.50;13.00;;;;;22.92;31.15;101274.92;110237;1265;18709;-46
2023/05/14 09:33:37;;;;;;;;;16.50;14.00;;;;;22.86;31.07;101277.30;110215;1265;19252;-40
2023/05/14 09:36:05;;;;;;;;;15.00;14.00;;;;;22.78;31.02;101278.64;110203;1265;20033;-42
2023/05/14 09:38:32;;;;;;;;;16.00;14.00;;;;;22.74;31.20;101284.09;110233;1265;18701;-40
2023/05/14 09:40:59;;;;;;;;;19.00;18.00;;;;;22.74;31.11;101280.17;110253;1265;20899;-40
2023/05/14 09:43:27;;;;;;;;;14.00;12.00;;;;;22.79;31.47;101275.79;110214;1250;18603;-40
2023/05/14 09:45:54;;;;;;;;;16.50;14.50;;;;;22.77;31.50;101276.70;110246;1265;18762;-39
2023/05/14 09:48:21;;;;;;;;;18.50;16.00;;;;;22.72;30.87;101276.36;110239;1265;19678;-40
2023/05/14 09:50:50;;;;;;;;;14.00;14.00;;;;;22.71;30.44;101272.48;110180;1265;18978;-39
2023/05/14 09:53:17;;;;;;;;;13.00;13.00;;;;;22.74;30.31;101262.70;110213;1265;19523;-40
2023/05/14 09:55:45;;;;;;;;;14.00;12.67;;;;;22.79;30.05;101264.06;110199;1254;23299;-40
2023/05/14 09:58:13;;;;;;;;;16.00;14.00;;;;;22.80;29.82;101269.41;110198;1251;20001;-39
2023/05/14 10:00:41;;;;;;;;;14.00;14.00;;;;;22.75;29.94;101257.99;110203;1251;19945;-39
2023/05/14 10:03:08;;;;;;;;;14.00;14.00;;;;;22.83;30.26;101256.54;110250;1265;19360;-40
2023/05/14 10:05:35;;;;;;;;;14.00;14.00;;;;;22.88;30.30;101253.02;110217;1265;18661;-41
2023/05/14 10:08:03;;;;;;;;;15.00;14.00;;;;;22.92;30.35;101250.70;110241;1265;22207;-40
2023/05/14 10:10:30;;;;;;;;;15.00;14.00;;;;;22.94;29.97;101251.24;110229;1265;19344;-40
2023/05/14 10:12:58;;;;;;;;;16.67;14.00;;;;;22.84;29.45;101237.77;110111;1251;19977;-39
2023/05/14 10:15:25;;;;;;;;;16.00;15.00;;;;;22.88;29.49;101240.41;110058;1260;18728;-43
2023/05/14 10:17:52;;;;;;;;;14.00;14.00;;;;;22.83;29.35;101239.38;110196;1265;19332;-40
2023/05/14 10:20:20;;;;;;;;;15.00;15.00;;;;;22.84;28.99;101232.16;110203;1251;23760;-40
2023/05/14 10:22:47;;;;;;;;;15.00;15.00;;;;;22.96;29.12;101222.73;110190;1265;18789;-40
2023/05/14 10:25:14;;;;;;;;;16.00;14.00;;;;;22.99;29.17;101222.23;110232;1265;19338;-44
2023/05/14 10:27:42;;;;;;;;;15.67;15.67;;;;;22.88;29.30;101224.95;110109;1257;18618;-39
2023/05/14 10:30:09;;;;;;;;;14.50;14.50;;;;;22.89;29.49;101229.10;110223;1265;18723;-41
2023/05/14 10:32:37;;;;;;;;;16.00;15.00;;;;;22.74;29.53;101219.54;110140;1266;20761;-40
2023/05/14 10:35:05;;;;;;;;;15.00;14.00;;;;;22.71;29.68;101220.79;110216;1251;22313;-42
2023/05/14 10:37:32;;;;;;;;;12.00;12.00;;;;;22.66;30.00;101215.61;110205;1265;22736;-39
2023/05/14 10:39:59;;;;;;;;;18.00;15.00;;;;;22.65;29.91;101213.05;110204;1265;19380;-40
2023/05/14 10:42:27;;;;;;;;;14.67;14.00;;;;;22.62;29.48;101203.70;110143;1257;22200;-40
2023/05/14 10:44:57;;;;;;;;;16.33;14.67;;;;;22.64;29.30;101204.71;110190;1265;18720;-40
2023/05/14 10:47:24;;;;;;;;;14.00;12.00;;;;;22.62;29.07;101200.05;110218;1265;22779;-42
2023/05/14 10:49:51;;;;;;;;;14.00;14.00;;;;;22.69;29.04;101199.73;110239;1265;18701;-41
2023/05/14 10:52:19;;;;;;;;;13.00;13.00;;;;;22.70;28.93;101200.84;110158;1260;20060;-40
2023/05/14 10:54:46;;;;;;;;;14.00;12.00;;;;;22.65;29.11;101202.22;110231;1265;19484;-40
2023/05/14 10:57:14;;;;;;;;;12.00;12.00;;;;;22.63;29.14;101192.80;110202;1265;18601;-41
2023/05/14 10:59:41;;;;;;;;;12.00;12.00;;;;;22.66;28.98;101185.41;110259;1265;18719;-41
2023/05/14 11:02:08;;;;;;;;;14.50;13.00;;;;;22.69;28.90;101188.14;110218;1251;19378;-41
2023/05/14 11:04:36;;;;;;;;;14.00;12.00;;;;;22.64;28.82;101186.76;110211;1265;19080;-41
2023/05/14 11:07:03;;;;;;;;;12.00;12.00;;;;;22.64;28.92;101187.27;110200;1266;22702;-40
2023/05/14 11:09:30;;;;;;;;;11.50;11.00;;;;;22.65;29.37;101184.44;110206;1265;19332;-42
2023/05/14 11:11:58;;;;;;;;;28.00;25.00;;;;;22.73;29.64;101186.14;110201;1250;19927;-42